Terminal Aerodrome Forecast
Issued by NWS Wakefield, VA

Home | Current Version | Previous Version | Text Only | Print | Product List | Glossary On
Versions: 1 2 3 4 5 6 7 8 9 10 11 12 13 14
000
FTUS41 KAKQ 130020 AAA
TAFRIC
TAF AMD
KRIC 130020Z 1300/1324 30015G25KT P6SM SCT025 BKN060
      TEMPO 1300/1301 2SM -SN BKN025
     FM130200 30013KT P6SM SCT100
     FM131400 28014G21KT P6SM SKC
     FM132100 26009KT P6SM SCT200=

USA.gov is the U.S. government's official web portal to all federal, state and local government web resources and services.